Eldorado, Ohio
Current Conditions -  °F | °C
As of 12:15 PM on Thursday 18 Dec 2014 (Local Time) from KVES Reporting Station
Overcast Overcast  
Wind Chill: 20°   Ceiling: 1500
Heat Index: 27°   Visibility: 10mi
Dew Point: 25°   Wind: 6mph
Humidity: 93%   Direction: 310°NW
Pressure: 30.24"   Gusts: NA
Location:  39.9°N, 84.67°W
Report Text: KVES 181715Z AUTO 31005KT 10SM OVC015 M03/M04 A3024 RMK AO2
Loading
Personal Weather Stations






























Interactive Weather Map New forecast layout! Learn more

10-Day Weather Forecast

Advertisements
Track Severe Weather on mobile